Time;durP1;ratioP1;P1;durP2;ratioP2;P2;SDS_P1;SDS_P2;PMS_P1;PMS_P2;Temp;Humidity;BMP_temperature;BMP_pressure;BME280_temperature;BME280_humidity;BME280_pressure;Samples;Min_cycle;Max_cycle;Signal;HPM_P1;HPM_P2
2021/05/10 00:01:58;;;;;;;2.30;1.13;;;;;;;12.19;50.05;89977.00;4997804;28;20026;-86
2021/05/10 00:04:24;;;;;;;1.45;0.90;;;;;;;12.09;50.38;89961.97;4998044;28;20072;-86
2021/05/10 00:06:49;;;;;;;2.97;1.20;;;;;;;12.09;50.08;89950.78;5030666;28;20080;-87
2021/05/10 00:09:15;;;;;;;1.65;1.10;;;;;;;12.07;49.62;89953.72;5014244;28;20038;-86
2021/05/10 00:11:40;;;;;;;5.00;1.20;;;;;;;12.15;48.86;89949.31;5013719;28;20491;-86
2021/05/10 00:14:06;;;;;;;2.13;1.05;;;;;;;12.14;49.17;89945.22;4997599;28;20040;-86
2021/05/10 00:16:32;;;;;;;1.85;1.15;;;;;;;11.83;50.68;89935.94;5013871;28;20022;-86
2021/05/10 00:18:58;;;;;;;2.17;1.00;;;;;;;11.75;50.50;89940.34;5014064;28;20022;-86
2021/05/10 00:21:24;;;;;;;1.52;1.00;;;;;;;11.63;51.42;89930.91;5013547;28;20021;-87
2021/05/10 00:23:49;;;;;;;1.10;0.90;;;;;;;11.68;51.20;89930.59;5030537;28;20037;-86
2021/05/10 00:26:14;;;;;;;1.95;0.90;;;;;;;11.52;52.22;89917.00;5030323;28;20021;-87
2021/05/10 00:28:40;;;;;;;1.88;1.13;;;;;;;11.51;51.71;89919.97;5013779;28;20029;-84
2021/05/10 00:31:05;;;;;;;1.58;1.00;;;;;;;11.47;51.88;89923.28;5030107;28;20029;-87
2021/05/10 00:33:31;;;;;;;1.65;1.00;;;;;;;11.44;52.40;89918.78;5013628;28;20038;-86
2021/05/10 00:35:56;;;;;;;2.22;1.08;;;;;;;11.38;52.68;89925.44;4997260;28;20030;-86
2021/05/10 00:38:21;;;;;;;2.67;1.25;;;;;;;11.35;52.79;89917.56;5011721;28;20041;-87
2021/05/10 00:40:47;;;;;;;1.95;0.90;;;;;;;11.29;52.88;89919.72;4978341;28;20030;-85
2021/05/10 00:43:12;;;;;;;1.65;1.10;;;;;;;11.28;52.86;89920.84;4978032;28;20033;-86
2021/05/10 00:45:38;;;;;;;3.53;1.00;;;;;;;11.17;52.82;89922.59;4977812;28;20027;-86
2021/05/10 00:48:04;;;;;;;3.60;1.30;;;;;;;11.13;53.29;89921.78;4993857;28;20379;-86
2021/05/10 00:50:29;;;;;;;3.28;1.00;;;;;;;11.08;53.18;89922.84;4961596;28;20125;-86
2021/05/10 00:52:54;;;;;;;2.28;1.00;;;;;;;11.22;52.73;89919.66;4993812;28;20030;-87
2021/05/10 00:55:20;;;;;;;3.13;1.00;;;;;;;11.08;53.38;89915.03;4977578;28;20026;-86
2021/05/10 00:58:04;;;;;;;2.80;1.10;;;;;;;11.07;53.60;89918.00;4977287;28;20034;-86
2021/05/10 01:00:35;;;;;;;1.90;1.03;;;;;;;10.97;54.00;89917.50;4994133;28;20481;-86
2021/05/10 01:03:01;;;;;;;4.30;1.00;;;;;;;10.96;53.79;89920.47;4993024;28;20275;-86
2021/05/10 01:05:26;;;;;;;2.30;1.10;;;;;;;10.85;54.10;89911.75;4993794;28;20026;-87
2021/05/10 01:07:52;;;;;;;3.15;1.20;;;;;;;10.83;54.07;89906.91;4977238;28;20403;-87
2021/05/10 01:10:18;;;;;;;3.03;1.20;;;;;;;10.89;53.74;89908.09;4993680;28;20025;-86
2021/05/10 01:12:44;;;;;;;1.60;1.00;;;;;;;10.97;53.56;89917.50;4977108;28;20659;-86
2021/05/10 01:15:11;;;;;;;3.97;1.60;;;;;;;10.83;54.21;89906.91;4977630;28;20027;-85
2021/05/10 01:17:37;;;;;;;1.60;0.90;;;;;;;10.84;54.54;89899.81;4976974;28;20022;-87
2021/05/10 01:20:10;;;;;;;2.15;1.08;;;;;;;10.78;54.53;89896.78;4977145;28;20045;-86
2021/05/10 01:22:45;;;;;;;2.85;1.10;;;;;;;10.70;54.94;89897.78;4993644;28;20105;-87
2021/05/10 01:25:15;;;;;;;3.80;1.00;;;;;;;10.64;54.53;89905.16;4977343;28;20026;-86
2021/05/10 01:27:41;;;;;;;3.28;1.20;;;;;;;10.56;55.52;89897.59;4977071;28;20480;-86
2021/05/10 01:30:08;;;;;;;2.08;1.10;;;;;;;10.54;55.48;89905.78;4993009;28;20041;-85
2021/05/10 01:32:34;;;;;;;1.98;1.08;;;;;;;10.50;55.92;89908.31;4976756;28;20121;-87
2021/05/10 01:34:59;;;;;;;1.35;0.88;;;;;;;10.43;56.09;89905.63;4977007;28;20030;-86
2021/05/10 01:37:25;;;;;;;2.30;1.10;;;;;;;10.46;55.60;89901.56;4999700;23;20425;-86
2021/05/10 01:39:50;;;;;;;3.80;1.00;;;;;;;10.43;54.84;89899.66;5011908;28;20033;-85
2021/05/10 01:42:16;;;;;;;2.67;1.10;;;;;;;10.45;54.63;89895.59;4995278;28;20030;-86
2021/05/10 01:44:41;;;;;;;2.70;1.10;;;;;;;10.44;55.48;89898.56;4995447;28;20026;-86
2021/05/10 01:47:06;;;;;;;2.30;1.13;;;;;;;10.43;55.35;89887.38;5008030;28;20516;-86
2021/05/10 01:49:32;;;;;;;4.30;1.00;;;;;;;10.36;55.84;89896.97;4992234;28;20020;-85
2021/05/10 01:52:01;;;;;;;1.52;1.00;;;;;;;10.21;56.31;89890.75;4943533;28;20029;-86
2021/05/10 01:54:27;;;;;;;2.40;1.20;;;;;;;10.25;56.64;89894.94;4959886;28;20045;-85
2021/05/10 01:56:52;;;;;;;4.05;1.10;;;;;;;10.16;57.12;89885.84;4976259;28;20022;-85
2021/05/10 01:59:18;;;;;;;1.63;1.00;;;;;;;10.14;57.18;89880.22;4993182;28;20031;-85
2021/05/10 02:01:43;;;;;;;3.75;1.55;;;;;;;10.23;57.47;89884.09;4959567;28;20022;-86
2021/05/10 02:04:08;;;;;;;3.22;1.23;;;;;;;10.09;57.98;89889.09;4960034;28;20033;-85
2021/05/10 02:06:34;;;;;;;3.80;1.13;;;;;;;10.00;58.12;89886.75;4959989;28;20030;-85
2021/05/10 02:08:59;;;;;;;1.80;1.00;;;;;;;9.94;58.68;89893.31;4992033;28;20072;-86
2021/05/10 02:11:25;;;;;;;5.18;1.00;;;;;;;9.98;59.01;89896.75;4975852;28;20037;-85
2021/05/10 02:13:50;;;;;;;2.08;1.40;;;;;;;10.01;58.85;89898.66;4956457;28;20078;-85
2021/05/10 02:16:16;;;;;;;2.65;1.20;;;;;;;10.03;58.66;89909.47;4955675;28;20489;-86
2021/05/10 02:18:41;;;;;;;5.35;1.17;;;;;;;10.09;58.57;89922.94;4939341;28;20035;-86
2021/05/10 02:21:06;;;;;;;3.35;1.10;;;;;;;10.03;58.64;89943.31;4939308;28;20034;-85
2021/05/10 02:23:33;;;;;;;4.25;1.08;;;;;;;10.09;58.76;89924.78;4956184;28;20034;-85
2021/05/10 02:26:03;;;;;;;1.35;1.10;;;;;;;10.14;58.77;89916.66;4973420;28;20037;-85
2021/05/10 02:28:29;;;;;;;1.80;0.93;;;;;;;10.43;57.09;89928.31;4939897;28;20030;-85
2021/05/10 02:30:56;;;;;;;3.25;0.95;;;;;;;10.49;58.82;89952.94;4924186;28;20077;-85
2021/05/10 02:33:23;;;;;;;2.00;1.20;;;;;;;10.48;59.28;89962.63;4956201;28;20030;-85
2021/05/10 02:35:49;;;;;;;2.40;1.20;;;;;;;10.53;57.07;89959.72;4973145;28;20031;-86
2021/05/10 02:38:15;;;;;;;2.97;1.20;;;;;;;10.47;59.76;89970.78;4987201;28;20042;-85
2021/05/10 02:40:40;;;;;;;3.75;1.38;;;;;;;10.20;59.77;89975.91;4991131;28;20101;-85
2021/05/10 02:43:06;;;;;;;3.47;1.27;;;;;;;10.12;60.44;89982.13;4991101;28;20026;-85
2021/05/10 02:45:31;;;;;;;1.95;1.15;;;;;;;10.14;60.72;89989.56;5007693;28;20026;-86
2021/05/10 02:47:57;;;;;;;1.85;1.10;;;;;;;10.05;61.15;89995.00;4991137;28;20108;-85
2021/05/10 02:50:23;;;;;;;2.45;0.95;;;;;;;10.04;61.39;89980.50;4975128;28;20019;-86
2021/05/10 02:52:48;;;;;;;2.28;1.30;;;;;;;10.06;61.43;89999.84;4998849;28;20093;-87
2021/05/10 02:55:14;;;;;;;2.70;1.30;;;;;;;10.12;62.61;89997.72;4987313;28;20178;-85
2021/05/10 02:57:40;;;;;;;2.33;1.30;;;;;;;10.15;63.53;89996.31;4994424;28;20026;-85
2021/05/10 03:00:07;;;;;;;2.72;1.13;;;;;;;10.12;63.89;89999.59;5007694;28;20101;-85
2021/05/10 03:02:32;;;;;;;1.90;1.15;;;;;;;10.11;64.48;89991.03;4990853;28;20487;-85
2021/05/10 03:04:57;;;;;;;2.13;1.10;;;;;;;10.07;65.11;90000.63;5007262;28;20026;-86
2021/05/10 03:07:23;;;;;;;1.75;1.00;;;;;;;10.02;64.41;89987.91;4992026;28;20026;-85
2021/05/10 03:09:48;;;;;;;3.85;1.15;;;;;;;10.11;64.59;90006.66;5007124;28;20069;-87
2021/05/10 03:12:14;;;;;;;1.63;1.33;;;;;;;10.00;67.69;89998.66;4991497;28;20034;-85
2021/05/10 03:14:39;;;;;;;2.17;1.35;;;;;;;9.95;66.72;89991.13;4990738;28;20033;-85
2021/05/10 03:17:04;;;;;;;2.33;1.00;;;;;;;9.85;65.39;89970.88;4990610;28;20041;-87
2021/05/10 03:19:30;;;;;;;1.92;1.08;;;;;;;9.94;66.07;89955.03;5006985;28;20061;-85
2021/05/10 03:21:55;;;;;;;2.42;0.90;;;;;;;9.88;65.48;89946.75;4990425;28;20038;-85
2021/05/10 03:24:21;;;;;;;2.08;1.20;;;;;;;9.79;66.09;89943.66;4990648;28;20407;-85
2021/05/10 03:26:47;;;;;;;3.05;1.33;;;;;;;9.85;66.02;89944.84;4990221;28;20374;-85
2021/05/10 03:29:12;;;;;;;2.63;1.10;;;;;;;9.90;66.28;89941.97;4990581;28;20026;-85
2021/05/10 03:31:38;;;;;;;2.25;1.10;;;;;;;9.85;66.54;89939.63;4990535;28;20097;-85
2021/05/10 03:34:04;;;;;;;1.55;1.20;;;;;;;9.82;66.53;89937.72;4990438;28;20034;-86
2021/05/10 03:36:29;;;;;;;2.42;1.30;;;;;;;9.79;66.78;89934.00;4987188;28;20015;-86
2021/05/10 03:38:55;;;;;;;2.05;1.17;;;;;;;9.87;66.69;89937.47;4922935;28;20053;-85
2021/05/10 03:41:22;;;;;;;1.83;1.13;;;;;;;9.75;67.20;89935.00;4954733;28;20030;-85
2021/05/10 03:43:49;;;;;;;2.58;1.17;;;;;;;9.77;66.62;89933.56;4939536;28;20034;-85
2021/05/10 03:46:14;;;;;;;3.47;1.30;;;;;;;9.66;67.26;89922.22;4939107;28;20019;-85
2021/05/10 03:48:39;;;;;;;2.97;1.13;;;;;;;9.68;66.93;89921.88;4954821;28;20034;-87
2021/05/10 03:51:05;;;;;;;3.15;1.20;;;;;;;9.67;66.83;89922.97;4954597;28;20018;-85
2021/05/10 03:53:30;;;;;;;4.32;1.55;;;;;;;9.65;67.29;89925.19;4955165;28;20081;-86
2021/05/10 03:55:55;;;;;;;2.72;1.00;;;;;;;9.66;66.37;89926.69;4938600;28;20027;-85
2021/05/10 03:58:21;;;;;;;2.28;1.30;;;;;;;9.51;66.83;89926.44;4954670;28;20027;-85
2021/05/10 04:00:46;;;;;;;2.97;1.30;;;;;;;9.50;67.32;89921.56;4954479;28;20065;-85
2021/05/10 04:03:14;;;;;;;3.67;1.17;;;;;;;9.55;66.18;89923.91;4954722;28;20023;-85
2021/05/10 04:06:06;;;;;;;3.08;1.60;;;;;;;9.71;65.42;89921.94;4971240;28;20589;-89
2021/05/10 04:13:54;;;;;;;1.77;1.05;;;;;;;9.77;65.57;89917.22;4942030;28;20110;-85
2021/05/10 04:16:19;;;;;;;2.78;1.13;;;;;;;9.92;64.40;89923.41;4971904;28;20054;-85
2021/05/10 04:18:44;;;;;;;1.23;1.10;;;;;;;9.88;65.10;89938.94;4938798;28;20031;-85
2021/05/10 04:21:10;;;;;;;3.95;1.13;;;;;;;9.94;64.49;89940.19;4954427;28;20434;-85
2021/05/10 04:23:35;;;;;;;2.75;1.20;;;;;;;9.89;65.13;89943.06;4938831;28;20034;-86
2021/05/10 04:26:01;;;;;;;1.90;1.13;;;;;;;9.85;65.54;89947.44;4970662;28;20019;-85
2021/05/10 04:28:26;;;;;;;1.90;1.10;;;;;;;9.84;66.44;89955.63;4954567;28;20639;-85
2021/05/10 04:30:52;;;;;;;4.20;1.15;;;;;;;9.93;65.17;89972.50;4954274;28;20045;-85
2021/05/10 04:33:31;;;;;;;3.67;1.13;;;;;;;9.91;64.60;89953.88;4938567;28;20030;-85
2021/05/10 04:35:57;;;;;;;1.73;0.98;;;;;;;9.86;64.58;89948.97;4939201;28;20018;-85
2021/05/10 04:38:23;;;;;;;3.20;1.10;;;;;;;10.04;63.24;89944.06;4954076;28;20105;-86
2021/05/10 04:40:48;;;;;;;4.10;1.13;;;;;;;10.04;63.80;89954.47;4957925;28;20026;-85
2021/05/10 04:43:13;;;;;;;1.60;0.93;;;;;;;10.19;62.71;89950.25;4974154;28;20597;-85
2021/05/10 04:45:39;;;;;;;4.22;1.35;;;;;;;10.11;63.49;89943.44;4957974;28;20023;-85
2021/05/10 04:48:04;;;;;;;3.13;1.10;;;;;;;10.13;63.69;89949.03;4957655;28;20038;-85
2021/05/10 04:50:30;;;;;;;3.33;1.23;;;;;;;9.95;66.35;89944.28;4957710;28;20034;-85
2021/05/10 04:52:55;;;;;;;1.88;1.00;;;;;;;10.00;66.07;89954.41;4957933;28;20031;-85
2021/05/10 04:55:21;;;;;;;3.38;1.13;;;;;;;10.01;65.41;89948.09;4957762;28;20515;-86
2021/05/10 04:57:46;;;;;;;2.10;1.30;;;;;;;9.91;66.14;89951.28;4957601;28;20030;-85
2021/05/10 05:00:12;;;;;;;2.63;1.20;;;;;;;9.86;67.26;89941.16;4973404;28;20031;-86
2021/05/10 05:02:38;;;;;;;2.17;1.27;;;;;;;9.75;67.74;89946.19;4941643;28;20061;-85
2021/05/10 05:05:04;;;;;;;3.25;1.35;;;;;;;9.74;67.84;89954.31;4957864;28;20027;-86
2021/05/10 05:07:30;;;;;;;3.20;1.30;;;;;;;9.76;67.68;89954.75;4973533;28;20026;-86
2021/05/10 05:09:55;;;;;;;8.05;1.73;;;;;;;9.80;68.24;89971.91;4973484;28;20030;-85
2021/05/10 05:12:20;;;;;;;5.88;1.08;;;;;;;9.91;68.20;89972.09;4957228;28;20026;-85
2021/05/10 05:14:46;;;;;;;1.95;0.98;;;;;;;10.00;68.04;89977.06;4957471;28;20065;-85
2021/05/10 05:17:11;;;;;;;5.53;1.50;;;;;;;9.93;68.95;89989.94;4941382;28;20019;-85
2021/05/10 05:19:37;;;;;;;5.32;1.50;;;;;;;9.94;68.49;89999.28;4941263;28;20026;-85
2021/05/10 05:22:02;;;;;;;4.20;1.70;;;;;;;9.91;68.21;90000.72;4949607;28;20030;-86
2021/05/10 05:24:28;;;;;;;2.83;1.50;;;;;;;9.91;69.17;90018.94;4960629;28;20022;-85
2021/05/10 05:26:54;;;;;;;5.82;1.60;;;;;;;9.93;69.34;90006.34;4960346;28;20507;-85
2021/05/10 05:29:22;;;;;;;3.67;1.50;;;;;;;9.93;68.05;90006.34;4960460;28;20113;-86
2021/05/10 05:31:50;;;;;;;6.65;1.60;;;;;;;10.02;69.25;90009.47;4992462;28;20034;-85
2021/05/10 05:34:19;;;;;;;3.05;1.70;;;;;;;10.10;69.61;90014.78;4960684;28;20033;-85
2021/05/10 05:36:44;;;;;;;2.08;1.58;;;;;;;10.16;70.83;90026.44;4946460;28;20076;-85
2021/05/10 05:39:10;;;;;;;2.85;1.50;;;;;;;10.31;69.37;90033.41;4993700;28;20460;-84
2021/05/10 05:41:35;;;;;;;1.38;1.15;;;;;;;10.39;69.15;90032.44;4992188;28;20030;-86
2021/05/10 05:44:05;;;;;;;2.45;1.30;;;;;;;10.48;65.79;90042.63;4992188;28;20058;-85
2021/05/10 05:46:33;;;;;;;2.65;1.40;;;;;;;10.61;64.99;90059.59;4992274;28;20077;-85
2021/05/10 05:48:59;;;;;;;11.18;2.00;;;;;;;10.81;64.27;90062.84;4976194;28;20030;-85
2021/05/10 05:51:24;;;;;;;1.27;0.90;;;;;;;10.95;64.35;90067.53;4991945;28;20029;-86
2021/05/10 05:53:53;;;;;;;2.92;1.30;;;;;;;11.04;64.17;90077.72;4975912;28;20480;-86
2021/05/10 05:56:19;;;;;;;3.22;1.20;;;;;;;11.19;62.06;90074.22;4975789;28;20388;-86
2021/05/10 05:58:45;;;;;;;3.55;1.42;;;;;;;11.31;61.92;90070.66;4992630;28;20054;-85
2021/05/10 06:01:10;;;;;;;3.35;1.40;;;;;;;11.42;62.86;90074.91;5000554;28;20036;-86
2021/05/10 06:03:36;;;;;;;2.80;1.20;;;;;;;11.57;62.70;90072.50;5003139;28;20026;-86
2021/05/10 06:06:01;;;;;;;1.10;0.88;;;;;;;11.75;60.13;90067.50;5006016;28;20022;-86
2021/05/10 06:08:28;;;;;;;1.85;1.00;;;;;;;11.88;60.98;90058.38;4999494;28;20399;-85
2021/05/10 06:10:54;;;;;;;1.02;0.80;;;;;;;12.16;58.46;90060.53;4975607;28;20030;-87
2021/05/10 06:13:19;;;;;;;1.02;0.80;;;;;;;12.38;59.05;90059.63;4991731;28;20029;-85
2021/05/10 06:15:45;;;;;;;1.60;0.80;;;;;;;12.61;56.44;90056.09;4975529;28;20030;-86
2021/05/10 06:18:10;;;;;;;2.33;0.90;;;;;;;12.81;57.99;90065.22;4975413;28;20029;-85
2021/05/10 06:20:36;;;;;;;2.58;1.00;;;;;;;12.98;62.36;90061.25;4991937;28;20027;-86
2021/05/10 06:23:02;;;;;;;2.55;1.10;;;;;;;13.15;65.81;90067.72;4989947;28;20472;-87
2021/05/10 06:25:27;;;;;;;1.67;1.20;;;;;;;13.40;64.47;90070.53;4991702;28;20037;-84
2021/05/10 06:27:53;;;;;;;2.80;1.30;;;;;;;13.62;65.56;90074.78;4980850;28;20387;-87
2021/05/10 06:30:18;;;;;;;1.95;1.00;;;;;;;13.71;61.33;90071.84;4991315;28;20030;-85
2021/05/10 06:32:44;;;;;;;1.27;0.80;;;;;;;13.89;51.74;90082.38;4964618;28;20032;-84
2021/05/10 06:35:10;;;;;;;1.20;0.80;;;;;;;14.05;57.30;90093.28;4992779;28;20092;-86
2021/05/10 06:37:35;;;;;;;4.50;1.20;;;;;;;14.05;61.24;90095.91;5002613;28;20459;-86
2021/05/10 06:40:01;;;;;;;4.97;1.48;;;;;;;14.02;64.75;90109.00;4990971;28;20033;-85
2021/05/10 06:42:26;;;;;;;3.90;1.42;;;;;;;13.90;62.42;90112.69;4958231;28;20026;-86
2021/05/10 06:44:52;;;;;;;3.15;1.25;;;;;;;13.94;61.02;90117.94;4959344;28;20072;-86
2021/05/10 06:47:17;;;;;;;2.45;1.92;;;;;;;14.07;60.12;90125.13;4974767;28;20026;-86
2021/05/10 06:49:43;;;;;;;2.20;1.08;;;;;;;14.18;54.36;90122.56;4958793;28;20022;-86
2021/05/10 06:52:09;;;;;;;3.15;0.60;;;;;;;14.41;48.51;90122.25;4974307;28;20048;-86
2021/05/10 06:54:34;;;;;;;2.60;0.95;;;;;;;14.55;52.33;90116.31;4974564;28;20029;-86
2021/05/10 06:57:00;;;;;;;1.98;0.90;;;;;;;14.86;48.13;90124.63;4958436;28;20022;-86
2021/05/10 06:59:26;;;;;;;1.45;0.82;;;;;;;14.90;49.78;90125.38;4974511;28;20500;-86
2021/05/10 07:01:52;;;;;;;2.65;1.20;;;;;;;14.99;52.40;90117.91;4990435;28;20030;-86
2021/05/10 07:04:17;;;;;;;1.33;0.80;;;;;;;14.92;50.03;90118.66;5008632;28;20037;-86
2021/05/10 07:06:43;;;;;;;2.67;1.58;;;;;;;14.85;48.46;90113.41;4992056;28;20026;-86
2021/05/10 07:09:09;;;;;;;3.75;2.08;;;;;;;15.04;48.70;90099.91;4992080;28;20033;-85
2021/05/10 07:11:35;;;;;;;12.68;5.90;;;;;;;14.93;48.58;90098.41;4990681;28;20026;-86
2021/05/10 07:14:01;;;;;;;12.07;6.43;;;;;;;14.91;48.38;90096.19;4990387;28;20085;-86
2021/05/10 07:16:27;;;;;;;4.18;2.72;;;;;;;14.88;48.77;90091.69;5006524;28;20026;-86
2021/05/10 07:18:54;;;;;;;3.85;2.10;;;;;;;15.00;50.13;90096.53;4990500;28;20034;-85
2021/05/10 07:21:20;;;;;;;2.58;1.42;;;;;;;15.19;50.22;90107.78;4973873;28;20058;-86
2021/05/10 07:23:45;;;;;;;3.10;1.30;;;;;;;15.23;50.93;90113.78;4990629;28;20108;-86
2021/05/10 07:26:10;;;;;;;2.22;1.00;;;;;;;15.09;48.76;90119.81;4990107;28;20037;-85
2021/05/10 07:28:36;;;;;;;3.20;1.50;;;;;;;15.02;49.34;90128.41;4973585;28;20117;-86
2021/05/10 07:31:01;;;;;;;3.35;1.50;;;;;;;15.10;50.03;90129.16;4991546;28;20077;-85
2021/05/10 07:33:26;;;;;;;2.20;1.20;;;;;;;15.21;48.84;90124.66;4987377;28;20037;-86
2021/05/10 07:35:52;;;;;;;5.28;2.50;;;;;;;15.37;49.66;90128.78;4972052;28;20019;-86
2021/05/10 07:38:18;;;;;;;4.35;2.53;;;;;;;15.67;48.87;90129.19;4960770;23;20051;-89
2021/05/10 07:40:43;;;;;;;3.03;1.85;;;;;;;15.87;47.24;90126.16;4916364;29;20031;-87
2021/05/10 07:43:09;;;;;;;4.40;2.58;;;;;;;16.10;49.82;90142.22;4900536;29;20028;-88
2021/05/10 07:45:34;;;;;;;3.97;1.88;;;;;;;16.14;47.93;90145.59;4908130;29;20032;-88
2021/05/10 07:48:00;;;;;;;2.25;1.00;;;;;;;16.34;45.46;90153.06;4883328;29;20558;-89
2021/05/10 07:50:26;;;;;;;2.15;1.00;;;;;;;16.60;45.35;90157.81;4898065;29;20036;-87
2021/05/10 07:52:51;;;;;;;2.38;1.08;;;;;;;16.70;44.44;90154.41;4900816;29;20028;-85
2021/05/10 07:55:18;;;;;;;3.00;1.20;;;;;;;16.82;44.42;90166.41;4912798;29;20036;-87
2021/05/10 07:57:44;;;;;;;2.63;1.35;;;;;;;16.69;45.03;90179.22;4892575;29;20036;-87
2021/05/10 08:00:13;;;;;;;4.05;1.20;;;;;;;16.73;43.54;90163.41;4916437;29;20143;-86
2021/05/10 08:02:39;;;;;;;2.20;0.90;;;;;;;16.79;44.11;90174.31;4914563;28;20225;-86
2021/05/10 08:05:04;;;;;;;3.83;0.80;;;;;;;16.68;43.83;90161.94;4914523;29;20047;-88
2021/05/10 08:07:30;;;;;;;1.73;0.73;;;;;;;16.56;45.57;90151.09;4894440;29;20123;-88
2021/05/10 08:09:55;;;;;;;4.85;0.75;;;;;;;16.63;44.44;90143.91;4909629;29;20025;-87
2021/05/10 08:12:21;;;;;;;2.20;0.70;;;;;;;16.54;44.08;90135.69;4914978;29;20393;-84
2021/05/10 08:14:46;;;;;;;3.30;0.88;;;;;;;16.49;46.51;90136.09;4916583;29;20027;-87
2021/05/10 08:17:11;;;;;;;2.15;0.70;;;;;;;16.52;46.88;90131.94;4915643;29;20020;-88
2021/05/10 08:19:37;;;;;;;2.63;0.80;;;;;;;16.28;44.58;90113.25;4910536;29;20079;-85
2021/05/10 08:22:03;;;;;;;1.75;0.77;;;;;;;16.35;45.33;90112.47;4918719;29;20028;-85
2021/05/10 08:24:29;;;;;;;4.72;1.77;;;;;;;16.55;44.78;90116.16;4918580;29;20048;-85
2021/05/10 08:26:54;;;;;;;3.63;1.08;;;;;;;16.77;43.96;90108.19;4901597;29;20020;-87
2021/05/10 08:29:20;;;;;;;1.63;0.70;;;;;;;16.85;43.55;90107.75;4917576;29;20028;-87
2021/05/10 08:31:46;;;;;;;2.08;0.80;;;;;;;17.01;46.87;90107.28;4901649;29;20592;-86
2021/05/10 08:34:14;;;;;;;2.38;1.30;;;;;;;16.90;48.63;90114.50;4917881;29;20080;-85
2021/05/10 08:36:40;;;;;;;4.43;1.60;;;;;;;16.87;49.29;90117.91;4900140;29;20024;-86
2021/05/10 08:39:08;;;;;;;4.20;1.52;;;;;;;16.44;49.65;90120.72;4918473;29;20079;-88
2021/05/10 08:41:37;;;;;;;2.60;1.33;;;;;;;16.55;49.22;90113.53;4902353;29;20131;-88
2021/05/10 08:44:09;;;;;;;3.08;1.60;;;;;;;16.44;49.23;90094.41;4901504;29;20517;-87
2021/05/10 08:46:35;;;;;;;4.32;1.40;;;;;;;16.48;50.44;90095.16;4917763;29;20056;-88
2021/05/10 08:49:01;;;;;;;1.83;1.10;;;;;;;16.44;49.94;90094.41;4917596;29;20028;-87
2021/05/10 08:51:29;;;;;;;5.93;1.30;;;;;;;16.65;49.19;90123.25;4902122;29;20028;-87
2021/05/10 08:53:54;;;;;;;4.93;1.08;;;;;;;16.43;49.66;90134.97;4916631;29;20047;-87
2021/05/10 08:56:20;;;;;;;6.60;1.35;;;;;;;16.58;50.09;90140.94;4917401;29;20553;-88
2021/05/10 08:58:46;;;;;;;4.80;1.23;;;;;;;16.84;49.13;90150.22;4917281;29;20032;-88
2021/05/10 09:01:12;;;;;;;3.28;0.90;;;;;;;16.78;48.30;90139.34;4902317;29;20027;-88
2021/05/10 09:03:43;;;;;;;2.63;1.02;;;;;;;16.85;48.59;90149.09;4902860;29;20038;-88
2021/05/10 09:06:12;;;;;;;4.10;1.00;;;;;;;17.08;49.89;90151.22;4918219;29;20028;-87
2021/05/10 09:08:40;;;;;;;4.55;1.05;;;;;;;17.40;48.75;90164.19;4903174;29;20028;-87
2021/05/10 09:11:14;;;;;;;2.13;0.80;;;;;;;17.51;46.14;90167.47;4918674;29;20058;-88
2021/05/10 09:13:40;;;;;;;3.55;1.08;;;;;;;17.51;46.01;90170.13;4912162;29;20028;-86
2021/05/10 09:16:06;;;;;;;1.98;0.90;;;;;;;16.88;47.60;90185.16;4902929;29;20071;-88
2021/05/10 09:18:32;;;;;;;5.13;0.95;;;;;;;16.93;46.83;90187.41;4934126;29;20034;-87
2021/05/10 09:21:13;;;;;;;2.88;0.88;;;;;;;17.13;46.34;90191.03;4902608;29;20039;-88
2021/05/10 09:23:39;;;;;;;3.08;1.10;;;;;;;16.77;47.77;90179.97;4888479;29;20028;-88
2021/05/10 09:26:04;;;;;;;2.15;0.63;;;;;;;17.02;46.87;90182.47;4935931;29;20082;-87
2021/05/10 09:28:38;;;;;;;3.65;0.90;;;;;;;17.24;47.50;90187.59;4935795;29;20020;-88
2021/05/10 09:31:06;;;;;;;3.45;1.10;;;;;;;16.81;49.62;90190.47;4935579;29;20039;-87
2021/05/10 09:33:31;;;;;;;1.85;1.13;;;;;;;16.08;53.02;90196.28;4919769;29;20086;-85
2021/05/10 09:35:58;;;;;;;3.92;1.30;;;;;;;15.90;54.15;90198.94;4919692;29;20031;-87
2021/05/10 09:38:28;;;;;;;5.10;1.27;;;;;;;15.72;54.98;90197.09;4904074;29;20466;-86
2021/05/10 09:41:01;;;;;;;3.92;1.40;;;;;;;15.62;55.73;90210.97;4925247;29;20012;-87
2021/05/10 09:43:35;;;;;;;4.45;1.20;;;;;;;15.61;54.94;90188.44;4936844;29;20030;-87
2021/05/10 09:46:18;;;;;;;4.53;1.10;;;;;;;15.67;55.79;90181.69;4919294;29;20043;-87
2021/05/10 09:48:45;;;;;;;2.13;1.00;;;;;;;16.05;54.52;90174.16;4919241;29;20130;-87
2021/05/10 09:51:12;;;;;;;4.82;1.25;;;;;;;16.21;54.00;90161.34;4934688;29;20551;-87
2021/05/10 09:53:39;;;;;;;2.47;0.90;;;;;;;16.39;53.80;90168.44;4918807;29;20031;-87
2021/05/10 09:56:11;;;;;;;2.38;0.90;;;;;;;16.39;51.79;90179.69;4919648;29;20051;-87
2021/05/10 09:58:44;;;;;;;2.40;0.77;;;;;;;16.23;52.59;90180.13;4951192;28;20040;-87
2021/05/10 10:01:09;;;;;;;4.25;1.10;;;;;;;16.13;52.64;90180.16;4918894;29;20023;-86
2021/05/10 10:03:38;;;;;;;4.47;1.20;;;;;;;15.77;52.41;90175.69;4918967;29;20393;-87
2021/05/10 10:06:08;;;;;;;3.03;0.80;;;;;;;15.83;53.87;90177.94;4916005;29;20020;-87
2021/05/10 10:08:34;;;;;;;2.95;1.30;;;;;;;15.45;54.22;90188.81;4915761;29;20024;-87
2021/05/10 10:11:00;;;;;;;1.67;0.70;;;;;;;15.17;55.37;90184.28;4899349;29;20028;-87
2021/05/10 10:13:26;;;;;;;4.15;0.90;;;;;;;15.12;55.07;90189.13;4908173;29;20031;-87
2021/05/10 10:15:51;;;;;;;2.97;0.82;;;;;;;15.14;55.55;90187.66;4881354;29;20060;-87
2021/05/10 10:18:18;;;;;;;2.55;0.93;;;;;;;15.23;54.32;90185.41;4931441;29;20027;-87
2021/05/10 10:20:44;;;;;;;2.20;0.90;;;;;;;15.06;55.76;90200.00;4934172;29;20027;-86
2021/05/10 10:23:11;;;;;;;3.08;1.10;;;;;;;14.90;55.53;90217.19;4918511;29;20024;-85
2021/05/10 10:25:37;;;;;;;2.90;0.70;;;;;;;14.86;56.12;90219.06;4902747;29;20030;-87
2021/05/10 10:28:04;;;;;;;3.03;0.80;;;;;;;14.89;56.46;90197.34;4902858;29;20024;-87
2021/05/10 10:30:32;;;;;;;1.48;0.65;;;;;;;14.50;56.52;90192.72;4918162;29;20378;-86
2021/05/10 10:32:59;;;;;;;1.88;0.70;;;;;;;14.46;56.84;90186.69;4918561;29;20035;-86
2021/05/10 10:35:25;;;;;;;1.30;0.75;;;;;;;14.58;57.21;90175.88;4918716;29;20027;-86
2021/05/10 10:37:51;;;;;;;3.80;0.90;;;;;;;14.41;57.14;90181.78;4899449;29;20036;-85
2021/05/10 10:40:18;;;;;;;3.00;0.93;;;;;;;14.24;57.90;90191.06;4915435;29;20671;-86
2021/05/10 10:42:43;;;;;;;2.00;0.80;;;;;;;14.40;57.97;90193.41;4899431;29;20087;-89
2021/05/10 10:45:11;;;;;;;1.90;0.80;;;;;;;14.53;57.14;90197.22;4915392;29;20032;-86
2021/05/10 10:47:58;;;;;;;2.13;0.88;;;;;;;14.60;56.88;90192.00;4899532;29;20132;-87
2021/05/10 10:50:26;;;;;;;2.63;0.90;;;;;;;14.86;55.88;90192.84;4916722;29;20024;-86
2021/05/10 10:52:56;;;;;;;1.92;0.80;;;;;;;14.78;56.34;90205.94;4930867;29;20028;-86
2021/05/10 10:55:30;;;;;;;3.05;0.80;;;;;;;15.01;56.22;90212.72;4915143;29;20024;-86
2021/05/10 10:58:14;;;;;;;3.67;0.70;;;;;;;15.16;55.88;90222.16;4914804;29;20098;-87
2021/05/10 11:01:07;;;;;;;1.23;0.80;;;;;;;14.96;56.14;90236.72;4915725;29;20054;-86
2021/05/10 11:03:34;;;;;;;3.17;0.90;;;;;;;15.17;55.30;90223.66;4912217;29;20079;-87
2021/05/10 11:06:01;;;;;;;3.90;1.00;;;;;;;15.19;55.74;90210.88;4895736;29;20028;-87
2021/05/10 11:08:45;;;;;;;2.15;0.85;;;;;;;15.26;55.73;90203.06;4898802;29;20024;-87
2021/05/10 11:11:12;;;;;;;1.58;0.93;;;;;;;14.93;56.32;90209.34;4911713;29;20083;-85
2021/05/10 11:13:40;;;;;;;3.05;0.90;;;;;;;15.33;55.63;90212.03;4914378;29;20032;-86
2021/05/10 11:16:18;;;;;;;2.10;0.80;;;;;;;15.44;57.30;90218.03;4899062;29;20024;-86
2021/05/10 11:18:49;;;;;;;4.07;1.20;;;;;;;15.71;56.73;90227.09;4898811;29;20070;-86
2021/05/10 11:21:23;;;;;;;3.28;1.23;;;;;;;15.70;57.96;90222.97;4914448;29;20221;-85
2021/05/10 11:23:59;;;;;;;2.30;1.13;;;;;;;15.39;57.10;90226.31;4898490;29;20145;-87
2021/05/10 11:26:50;;;;;;;3.70;1.00;;;;;;;15.43;57.72;90227.06;4914224;29;20406;-87
2021/05/10 11:29:24;;;;;;;4.95;1.00;;;;;;;15.40;57.10;90225.19;4913558;29;20490;-87
2021/05/10 11:31:50;;;;;;;;;;;;;;;15.11;58.37;90219.88;4916489;29;20067;-86
2021/05/10 11:34:23;;;;;;;3.67;1.10;;;;;;;15.09;58.61;90224.00;4898280;29;19962;-87
2021/05/10 11:36:52;;;;;;;3.00;1.10;;;;;;;15.24;59.96;90221.03;4913773;29;20039;-87
2021/05/10 11:39:27;;;;;;;2.25;0.93;;;;;;;15.19;58.78;90221.38;4914122;29;20028;-87